sensor_id;sensor_type;location;lat;lon;timestamp;P1;durP1;ratioP1;P2;durP2;ratioP2
63599;SDS011;49747;51.334;6.830;2023-02-10T00:03:35;33.67;;;19.08;;
63599;SDS011;49747;51.334;6.830;2023-02-10T00:06:02;34.38;;;17.75;;
63599;SDS011;49747;51.334;6.830;2023-02-10T00:08:30;35.55;;;19.50;;
63599;SDS011;49747;51.334;6.830;2023-02-10T00:10:57;31.80;;;18.42;;
63599;SDS011;49747;51.334;6.830;2023-02-10T00:13:26;33.70;;;18.42;;
63599;SDS011;49747;51.334;6.830;2023-02-10T00:15:53;36.90;;;19.98;;
63599;SDS011;49747;51.334;6.830;2023-02-10T00:18:20;34.85;;;17.95;;
63599;SDS011;49747;51.334;6.830;2023-02-10T00:20:47;32.85;;;18.20;;
63599;SDS011;49747;51.334;6.830;2023-02-10T00:23:13;34.58;;;18.38;;
63599;SDS011;49747;51.334;6.830;2023-02-10T00:25:40;38.63;;;19.05;;
63599;SDS011;49747;51.334;6.830;2023-02-10T00:28:07;38.08;;;21.35;;
63599;SDS011;49747;51.334;6.830;2023-02-10T00:30:34;37.00;;;19.77;;
63599;SDS011;49747;51.334;6.830;2023-02-10T00:33:00;36.55;;;19.13;;
63599;SDS011;49747;51.334;6.830;2023-02-10T00:35:27;34.80;;;19.08;;
63599;SDS011;49747;51.334;6.830;2023-02-10T00:37:54;37.22;;;20.08;;
63599;SDS011;49747;51.334;6.830;2023-02-10T00:40:20;38.92;;;20.38;;
63599;SDS011;49747;51.334;6.830;2023-02-10T00:42:47;40.13;;;21.27;;
63599;SDS011;49747;51.334;6.830;2023-02-10T00:45:14;35.30;;;19.30;;
63599;SDS011;49747;51.334;6.830;2023-02-10T00:47:41;34.83;;;18.65;;
63599;SDS011;49747;51.334;6.830;2023-02-10T00:50:07;36.92;;;19.25;;
63599;SDS011;49747;51.334;6.830;2023-02-10T00:52:34;31.83;;;18.98;;
63599;SDS011;49747;51.334;6.830;2023-02-10T00:55:00;35.80;;;19.48;;
63599;SDS011;49747;51.334;6.830;2023-02-10T00:57:27;33.47;;;19.55;;
63599;SDS011;49747;51.334;6.830;2023-02-10T00:59:54;37.00;;;19.27;;
63599;SDS011;49747;51.334;6.830;2023-02-10T01:02:20;40.50;;;20.08;;
63599;SDS011;49747;51.334;6.830;2023-02-10T01:04:47;35.78;;;19.80;;
63599;SDS011;49747;51.334;6.830;2023-02-10T01:07:15;36.25;;;20.35;;
63599;SDS011;49747;51.334;6.830;2023-02-10T01:09:42;34.55;;;19.25;;
63599;SDS011;49747;51.334;6.830;2023-02-10T01:12:08;34.90;;;19.35;;
63599;SDS011;49747;51.334;6.830;2023-02-10T01:14:35;35.28;;;20.90;;
63599;SDS011;49747;51.334;6.830;2023-02-10T01:17:02;35.80;;;19.77;;
63599;SDS011;49747;51.334;6.830;2023-02-10T01:19:29;36.20;;;20.00;;
63599;SDS011;49747;51.334;6.830;2023-02-10T01:21:55;37.45;;;20.27;;
63599;SDS011;49747;51.334;6.830;2023-02-10T01:24:22;37.38;;;20.95;;
63599;SDS011;49747;51.334;6.830;2023-02-10T01:26:49;35.08;;;20.75;;
63599;SDS011;49747;51.334;6.830;2023-02-10T01:29:15;38.70;;;20.23;;
63599;SDS011;49747;51.334;6.830;2023-02-10T01:31:42;37.00;;;20.45;;
63599;SDS011;49747;51.334;6.830;2023-02-10T01:34:08;35.47;;;19.30;;
63599;SDS011;49747;51.334;6.830;2023-02-10T01:36:36;35.20;;;20.83;;
63599;SDS011;49747;51.334;6.830;2023-02-10T01:39:02;37.15;;;20.23;;
63599;SDS011;49747;51.334;6.830;2023-02-10T01:41:29;35.35;;;20.05;;
63599;SDS011;49747;51.334;6.830;2023-02-10T01:46:30;37.10;;;19.75;;
63599;SDS011;49747;51.334;6.830;2023-02-10T01:49:02;36.25;;;20.35;;
63599;SDS011;49747;51.334;6.830;2023-02-10T01:51:42;35.92;;;19.83;;
63599;SDS011;49747;51.334;6.830;2023-02-10T01:54:16;36.42;;;21.55;;
63599;SDS011;49747;51.334;6.830;2023-02-10T01:56:47;37.65;;;19.27;;
63599;SDS011;49747;51.334;6.830;2023-02-10T01:59:14;37.38;;;20.65;;
63599;SDS011;49747;51.334;6.830;2023-02-10T02:01:42;33.80;;;19.08;;
63599;SDS011;49747;51.334;6.830;2023-02-10T02:04:09;35.65;;;20.40;;
63599;SDS011;49747;51.334;6.830;2023-02-10T02:06:36;35.58;;;18.98;;
63599;SDS011;49747;51.334;6.830;2023-02-10T02:09:04;36.45;;;20.05;;
63599;SDS011;49747;51.334;6.830;2023-02-10T02:11:38;37.60;;;19.25;;
63599;SDS011;49747;51.334;6.830;2023-02-10T02:17:20;37.22;;;19.98;;
63599;SDS011;49747;51.334;6.830;2023-02-10T02:20:16;36.38;;;20.88;;
63599;SDS011;49747;51.334;6.830;2023-02-10T02:26:01;33.30;;;19.60;;
63599;SDS011;49747;51.334;6.830;2023-02-10T02:32:13;35.65;;;19.50;;
63599;SDS011;49747;51.334;6.830;2023-02-10T02:34:56;37.35;;;21.23;;
63599;SDS011;49747;51.334;6.830;2023-02-10T02:37:29;37.33;;;20.48;;
63599;SDS011;49747;51.334;6.830;2023-02-10T02:39:58;32.50;;;18.75;;
63599;SDS011;49747;51.334;6.830;2023-02-10T02:42:25;35.63;;;20.35;;
63599;SDS011;49747;51.334;6.830;2023-02-10T02:44:57;35.47;;;19.45;;
63599;SDS011;49747;51.334;6.830;2023-02-10T02:52:49;44.10;;;23.08;;
63599;SDS011;49747;51.334;6.830;2023-02-10T02:58:33;36.65;;;19.63;;
63599;SDS011;49747;51.334;6.830;2023-02-10T03:01:02;37.17;;;20.88;;
63599;SDS011;49747;51.334;6.830;2023-02-10T03:03:33;36.28;;;20.38;;
63599;SDS011;49747;51.334;6.830;2023-02-10T03:06:02;35.30;;;19.90;;
63599;SDS011;49747;51.334;6.830;2023-02-10T03:08:29;34.10;;;20.33;;
63599;SDS011;49747;51.334;6.830;2023-02-10T03:10:58;37.90;;;20.02;;
63599;SDS011;49747;51.334;6.830;2023-02-10T03:13:25;35.67;;;20.38;;
63599;SDS011;49747;51.334;6.830;2023-02-10T03:15:52;40.47;;;21.25;;
63599;SDS011;49747;51.334;6.830;2023-02-10T03:18:18;40.42;;;21.75;;
63599;SDS011;49747;51.334;6.830;2023-02-10T03:20:45;38.55;;;19.75;;
63599;SDS011;49747;51.334;6.830;2023-02-10T03:23:12;39.40;;;20.42;;
63599;SDS011;49747;51.334;6.830;2023-02-10T03:25:39;38.50;;;20.38;;
63599;SDS011;49747;51.334;6.830;2023-02-10T03:28:06;39.42;;;21.33;;
63599;SDS011;49747;51.334;6.830;2023-02-10T03:30:33;33.88;;;20.67;;
63599;SDS011;49747;51.334;6.830;2023-02-10T03:32:59;34.25;;;19.85;;
63599;SDS011;49747;51.334;6.830;2023-02-10T03:35:26;37.75;;;20.80;;
63599;SDS011;49747;51.334;6.830;2023-02-10T03:37:53;36.33;;;20.02;;
63599;SDS011;49747;51.334;6.830;2023-02-10T03:40:22;34.38;;;19.83;;
63599;SDS011;49747;51.334;6.830;2023-02-10T03:42:48;40.45;;;20.95;;
63599;SDS011;49747;51.334;6.830;2023-02-10T03:45:15;44.17;;;20.30;;
63599;SDS011;49747;51.334;6.830;2023-02-10T03:47:41;35.53;;;21.00;;
63599;SDS011;49747;51.334;6.830;2023-02-10T03:50:08;37.58;;;19.98;;
63599;SDS011;49747;51.334;6.830;2023-02-10T03:52:34;36.83;;;19.50;;
63599;SDS011;49747;51.334;6.830;2023-02-10T03:55:03;35.97;;;19.17;;
63599;SDS011;49747;51.334;6.830;2023-02-10T03:57:30;35.33;;;18.67;;
63599;SDS011;49747;51.334;6.830;2023-02-10T03:59:56;35.50;;;19.92;;
63599;SDS011;49747;51.334;6.830;2023-02-10T04:02:23;37.30;;;20.75;;
63599;SDS011;49747;51.334;6.830;2023-02-10T04:04:49;35.47;;;19.55;;
63599;SDS011;49747;51.334;6.830;2023-02-10T04:07:16;34.15;;;19.25;;
63599;SDS011;49747;51.334;6.830;2023-02-10T04:09:43;39.53;;;21.83;;
63599;SDS011;49747;51.334;6.830;2023-02-10T04:12:10;37.03;;;19.92;;
63599;SDS011;49747;51.334;6.830;2023-02-10T04:14:36;37.15;;;19.38;;
63599;SDS011;49747;51.334;6.830;2023-02-10T04:17:03;39.67;;;20.25;;
63599;SDS011;49747;51.334;6.830;2023-02-10T04:19:29;35.38;;;20.48;;
63599;SDS011;49747;51.334;6.830;2023-02-10T04:21:56;37.45;;;20.48;;
63599;SDS011;49747;51.334;6.830;2023-02-10T04:24:22;36.63;;;20.38;;
63599;SDS011;49747;51.334;6.830;2023-02-10T04:26:49;37.75;;;20.77;;
63599;SDS011;49747;51.334;6.830;2023-02-10T04:29:15;36.83;;;19.98;;
63599;SDS011;49747;51.334;6.830;2023-02-10T04:31:42;37.75;;;19.52;;
63599;SDS011;49747;51.334;6.830;2023-02-10T04:34:08;38.13;;;20.52;;
63599;SDS011;49747;51.334;6.830;2023-02-10T04:36:35;39.03;;;21.20;;
63599;SDS011;49747;51.334;6.830;2023-02-10T04:39:02;41.33;;;21.13;;
63599;SDS011;49747;51.334;6.830;2023-02-10T04:41:29;34.05;;;19.08;;
63599;SDS011;49747;51.334;6.830;2023-02-10T04:43:55;41.67;;;20.48;;
63599;SDS011;49747;51.334;6.830;2023-02-10T04:46:22;37.10;;;21.00;;
63599;SDS011;49747;51.334;6.830;2023-02-10T04:48:48;36.17;;;20.50;;
63599;SDS011;49747;51.334;6.830;2023-02-10T04:51:15;37.45;;;19.60;;
63599;SDS011;49747;51.334;6.830;2023-02-10T04:53:42;39.38;;;19.75;;
63599;SDS011;49747;51.334;6.830;2023-02-10T04:56:13;37.00;;;19.65;;
63599;SDS011;49747;51.334;6.830;2023-02-10T04:58:41;38.33;;;20.52;;
63599;SDS011;49747;51.334;6.830;2023-02-10T05:01:08;33.78;;;19.63;;
63599;SDS011;49747;51.334;6.830;2023-02-10T05:03:36;39.58;;;22.25;;
63599;SDS011;49747;51.334;6.830;2023-02-10T05:06:09;39.25;;;21.98;;
63599;SDS011;49747;51.334;6.830;2023-02-10T05:08:38;40.47;;;20.08;;
63599;SDS011;49747;51.334;6.830;2023-02-10T05:11:09;40.17;;;22.08;;
63599;SDS011;49747;51.334;6.830;2023-02-10T05:13:40;37.00;;;20.33;;
63599;SDS011;49747;51.334;6.830;2023-02-10T05:16:07;39.42;;;20.90;;
63599;SDS011;49747;51.334;6.830;2023-02-10T05:18:34;38.58;;;21.83;;
63599;SDS011;49747;51.334;6.830;2023-02-10T05:21:02;38.60;;;21.00;;
63599;SDS011;49747;51.334;6.830;2023-02-10T05:23:29;40.22;;;20.65;;
63599;SDS011;49747;51.334;6.830;2023-02-10T05:25:56;35.92;;;20.00;;
63599;SDS011;49747;51.334;6.830;2023-02-10T05:28:22;42.50;;;21.95;;
63599;SDS011;49747;51.334;6.830;2023-02-10T05:30:49;36.45;;;21.75;;
63599;SDS011;49747;51.334;6.830;2023-02-10T05:33:16;37.85;;;20.42;;
63599;SDS011;49747;51.334;6.830;2023-02-10T05:35:42;34.55;;;19.33;;
63599;SDS011;49747;51.334;6.830;2023-02-10T05:38:09;35.97;;;19.40;;
63599;SDS011;49747;51.334;6.830;2023-02-10T05:40:36;33.10;;;18.88;;
63599;SDS011;49747;51.334;6.830;2023-02-10T05:43:03;37.38;;;20.77;;
63599;SDS011;49747;51.334;6.830;2023-02-10T05:45:30;39.20;;;20.77;;
63599;SDS011;49747;51.334;6.830;2023-02-10T05:47:56;38.63;;;20.08;;
63599;SDS011;49747;51.334;6.830;2023-02-10T05:50:23;36.80;;;20.02;;
63599;SDS011;49747;51.334;6.830;2023-02-10T05:52:50;33.45;;;19.33;;
63599;SDS011;49747;51.334;6.830;2023-02-10T05:55:17;35.55;;;19.83;;
63599;SDS011;49747;51.334;6.830;2023-02-10T05:57:43;35.97;;;20.20;;
63599;SDS011;49747;51.334;6.830;2023-02-10T06:00:10;36.75;;;20.75;;
63599;SDS011;49747;51.334;6.830;2023-02-10T06:02:38;37.08;;;20.52;;
63599;SDS011;49747;51.334;6.830;2023-02-10T06:05:04;41.05;;;21.48;;
63599;SDS011;49747;51.334;6.830;2023-02-10T06:07:31;41.85;;;21.08;;
63599;SDS011;49747;51.334;6.830;2023-02-10T06:09:58;40.33;;;19.55;;
63599;SDS011;49747;51.334;6.830;2023-02-10T06:12:24;34.28;;;19.58;;
63599;SDS011;49747;51.334;6.830;2023-02-10T06:14:51;37.20;;;20.65;;
63599;SDS011;49747;51.334;6.830;2023-02-10T06:17:18;36.10;;;20.23;;
63599;SDS011;49747;51.334;6.830;2023-02-10T06:19:44;36.50;;;20.25;;
63599;SDS011;49747;51.334;6.830;2023-02-10T06:22:11;36.13;;;19.65;;
63599;SDS011;49747;51.334;6.830;2023-02-10T06:24:37;38.92;;;19.55;;
63599;SDS011;49747;51.334;6.830;2023-02-10T06:27:05;38.65;;;20.02;;
63599;SDS011;49747;51.334;6.830;2023-02-10T06:29:31;42.72;;;19.77;;
63599;SDS011;49747;51.334;6.830;2023-02-10T06:31:58;41.22;;;20.58;;
63599;SDS011;49747;51.334;6.830;2023-02-10T06:34:25;40.85;;;21.38;;
63599;SDS011;49747;51.334;6.830;2023-02-10T06:36:52;38.30;;;19.90;;
63599;SDS011;49747;51.334;6.830;2023-02-10T06:39:18;40.65;;;20.83;;
63599;SDS011;49747;51.334;6.830;2023-02-10T06:41:44;39.42;;;20.13;;
63599;SDS011;49747;51.334;6.830;2023-02-10T06:44:11;35.03;;;19.38;;
63599;SDS011;49747;51.334;6.830;2023-02-10T06:46:37;44.03;;;21.20;;
63599;SDS011;49747;51.334;6.830;2023-02-10T06:49:04;36.63;;;19.25;;
63599;SDS011;49747;51.334;6.830;2023-02-10T06:51:30;35.72;;;20.05;;
63599;SDS011;49747;51.334;6.830;2023-02-10T06:53:57;36.10;;;20.20;;
63599;SDS011;49747;51.334;6.830;2023-02-10T06:56:24;37.50;;;19.55;;
63599;SDS011;49747;51.334;6.830;2023-02-10T06:58:50;42.58;;;21.60;;
63599;SDS011;49747;51.334;6.830;2023-02-10T07:01:17;39.03;;;20.95;;
63599;SDS011;49747;51.334;6.830;2023-02-10T07:03:44;37.58;;;21.00;;
63599;SDS011;49747;51.334;6.830;2023-02-10T07:06:11;38.88;;;20.73;;
63599;SDS011;49747;51.334;6.830;2023-02-10T07:08:37;38.42;;;23.00;;
63599;SDS011;49747;51.334;6.830;2023-02-10T07:11:04;42.38;;;22.35;;
63599;SDS011;49747;51.334;6.830;2023-02-10T07:13:31;37.88;;;20.27;;
63599;SDS011;49747;51.334;6.830;2023-02-10T07:15:57;36.55;;;20.33;;
63599;SDS011;49747;51.334;6.830;2023-02-10T07:18:24;33.53;;;18.63;;
63599;SDS011;49747;51.334;6.830;2023-02-10T07:20:51;39.88;;;20.02;;
63599;SDS011;49747;51.334;6.830;2023-02-10T07:23:17;37.17;;;20.60;;
63599;SDS011;49747;51.334;6.830;2023-02-10T07:26:00;40.53;;;20.52;;
63599;SDS011;49747;51.334;6.830;2023-02-10T07:28:27;44.70;;;23.65;;
63599;SDS011;49747;51.334;6.830;2023-02-10T07:30:54;41.72;;;23.00;;
63599;SDS011;49747;51.334;6.830;2023-02-10T07:33:21;42.47;;;23.02;;
63599;SDS011;49747;51.334;6.830;2023-02-10T07:35:48;40.42;;;22.45;;
63599;SDS011;49747;51.334;6.830;2023-02-10T07:38:15;45.33;;;22.17;;
63599;SDS011;49747;51.334;6.830;2023-02-10T07:40:42;48.88;;;24.38;;
63599;SDS011;49747;51.334;6.830;2023-02-10T07:43:08;48.78;;;22.55;;
63599;SDS011;49747;51.334;6.830;2023-02-10T07:45:52;43.95;;;22.85;;
63599;SDS011;49747;51.334;6.830;2023-02-10T07:48:20;46.45;;;22.80;;
63599;SDS011;49747;51.334;6.830;2023-02-10T07:50:46;49.55;;;23.35;;
63599;SDS011;49747;51.334;6.830;2023-02-10T07:53:14;40.85;;;22.88;;
63599;SDS011;49747;51.334;6.830;2023-02-10T07:55:40;46.35;;;22.92;;
63599;SDS011;49747;51.334;6.830;2023-02-10T07:58:07;47.45;;;24.25;;
63599;SDS011;49747;51.334;6.830;2023-02-10T08:00:34;44.55;;;23.63;;
63599;SDS011;49747;51.334;6.830;2023-02-10T08:03:00;42.17;;;22.65;;
63599;SDS011;49747;51.334;6.830;2023-02-10T08:05:29;46.00;;;22.88;;
63599;SDS011;49747;51.334;6.830;2023-02-10T08:07:56;46.30;;;23.23;;
63599;SDS011;49747;51.334;6.830;2023-02-10T08:10:23;50.58;;;23.90;;
63599;SDS011;49747;51.334;6.830;2023-02-10T08:12:50;45.00;;;22.90;;
63599;SDS011;49747;51.334;6.830;2023-02-10T08:15:16;44.17;;;24.23;;
63599;SDS011;49747;51.334;6.830;2023-02-10T08:17:44;44.50;;;23.02;;
63599;SDS011;49747;51.334;6.830;2023-02-10T08:20:11;44.40;;;23.67;;
63599;SDS011;49747;51.334;6.830;2023-02-10T08:22:39;49.03;;;23.48;;
63599;SDS011;49747;51.334;6.830;2023-02-10T08:25:06;44.13;;;21.75;;
63599;SDS011;49747;51.334;6.830;2023-02-10T08:27:33;51.40;;;25.45;;
63599;SDS011;49747;51.334;6.830;2023-02-10T08:30:00;44.17;;;22.95;;
63599;SDS011;49747;51.334;6.830;2023-02-10T08:32:27;41.53;;;21.98;;
63599;SDS011;49747;51.334;6.830;2023-02-10T08:34:53;44.55;;;23.40;;
63599;SDS011;49747;51.334;6.830;2023-02-10T08:37:20;46.38;;;22.75;;
63599;SDS011;49747;51.334;6.830;2023-02-10T08:39:47;46.92;;;22.80;;
63599;SDS011;49747;51.334;6.830;2023-02-10T08:42:15;42.92;;;22.23;;
63599;SDS011;49747;51.334;6.830;2023-02-10T08:44:42;43.35;;;22.20;;
63599;SDS011;49747;51.334;6.830;2023-02-10T08:47:08;23.52;;;11.23;;
63599;SDS011;49747;51.334;6.830;2023-02-10T08:49:37;40.55;;;19.00;;
63599;SDS011;49747;51.334;6.830;2023-02-10T08:52:04;47.60;;;23.60;;
63599;SDS011;49747;51.334;6.830;2023-02-10T08:54:31;47.40;;;22.15;;
63599;SDS011;49747;51.334;6.830;2023-02-10T08:56:57;41.17;;;22.90;;
63599;SDS011;49747;51.334;6.830;2023-02-10T08:59:25;45.45;;;23.80;;
63599;SDS011;49747;51.334;6.830;2023-02-10T09:01:52;44.67;;;22.77;;
63599;SDS011;49747;51.334;6.830;2023-02-10T09:04:19;46.72;;;24.33;;
63599;SDS011;49747;51.334;6.830;2023-02-10T09:06:45;45.33;;;22.80;;
63599;SDS011;49747;51.334;6.830;2023-02-10T09:09:14;43.92;;;22.50;;
63599;SDS011;49747;51.334;6.830;2023-02-10T09:11:47;48.17;;;24.08;;
63599;SDS011;49747;51.334;6.830;2023-02-10T09:14:14;50.60;;;24.73;;
63599;SDS011;49747;51.334;6.830;2023-02-10T09:16:41;50.22;;;23.77;;
63599;SDS011;49747;51.334;6.830;2023-02-10T09:19:08;48.83;;;23.42;;
63599;SDS011;49747;51.334;6.830;2023-02-10T09:21:35;52.08;;;26.98;;
63599;SDS011;49747;51.334;6.830;2023-02-10T09:24:12;49.55;;;24.98;;
63599;SDS011;49747;51.334;6.830;2023-02-10T09:26:39;55.10;;;26.85;;
63599;SDS011;49747;51.334;6.830;2023-02-10T09:29:06;47.08;;;22.95;;
63599;SDS011;49747;51.334;6.830;2023-02-10T09:31:34;45.50;;;23.23;;
63599;SDS011;49747;51.334;6.830;2023-02-10T09:34:01;48.65;;;26.48;;
63599;SDS011;49747;51.334;6.830;2023-02-10T09:36:27;50.97;;;23.40;;
63599;SDS011;49747;51.334;6.830;2023-02-10T09:38:55;46.78;;;23.67;;
63599;SDS011;49747;51.334;6.830;2023-02-10T09:54:41;45.78;;;22.70;;
63599;SDS011;49747;51.334;6.830;2023-02-10T09:57:13;51.30;;;24.58;;
63599;SDS011;49747;51.334;6.830;2023-02-10T09:59:42;43.80;;;23.58;;
63599;SDS011;49747;51.334;6.830;2023-02-10T10:05:22;44.38;;;24.25;;
63599;SDS011;49747;51.334;6.830;2023-02-10T10:07:56;50.05;;;24.00;;
63599;SDS011;49747;51.334;6.830;2023-02-10T10:10:27;49.28;;;25.00;;
63599;SDS011;49747;51.334;6.830;2023-02-10T10:13:00;48.08;;;24.83;;
63599;SDS011;49747;51.334;6.830;2023-02-10T10:15:31;43.63;;;24.38;;
63599;SDS011;49747;51.334;6.830;2023-02-10T10:32:58;43.38;;;23.48;;
63599;SDS011;49747;51.334;6.830;2023-02-10T10:35:18;43.03;;;22.13;;
63599;SDS011;49747;51.334;6.830;2023-02-10T10:37:48;42.85;;;22.50;;
63599;SDS011;49747;51.334;6.830;2023-02-10T10:40:20;45.65;;;23.10;;
63599;SDS011;49747;51.334;6.830;2023-02-10T10:42:55;47.20;;;24.48;;
63599;SDS011;49747;51.334;6.830;2023-02-10T10:45:28;47.30;;;23.75;;
63599;SDS011;49747;51.334;6.830;2023-02-10T10:48:09;40.13;;;21.95;;
63599;SDS011;49747;51.334;6.830;2023-02-10T10:50:42;45.80;;;24.02;;
63599;SDS011;49747;51.334;6.830;2023-02-10T10:56:16;45.60;;;22.15;;
63599;SDS011;49747;51.334;6.830;2023-02-10T10:58:51;48.55;;;22.83;;
63599;SDS011;49747;51.334;6.830;2023-02-10T11:01:28;46.92;;;23.00;;
63599;SDS011;49747;51.334;6.830;2023-02-10T11:04:31;42.60;;;19.77;;
63599;SDS011;49747;51.334;6.830;2023-02-10T11:06:52;47.05;;;21.20;;
63599;SDS011;49747;51.334;6.830;2023-02-10T11:09:23;44.42;;;19.92;;
63599;SDS011;49747;51.334;6.830;2023-02-10T11:12:20;41.35;;;21.77;;
63599;SDS011;49747;51.334;6.830;2023-02-10T11:14:47;46.65;;;20.35;;
63599;SDS011;49747;51.334;6.830;2023-02-10T11:22:37;42.08;;;21.13;;
63599;SDS011;49747;51.334;6.830;2023-02-10T11:27:53;44.63;;;19.38;;
63599;SDS011;49747;51.334;6.830;2023-02-10T11:32:58;42.80;;;20.77;;
63599;SDS011;49747;51.334;6.830;2023-02-10T11:35:26;42.20;;;19.48;;
63599;SDS011;49747;51.334;6.830;2023-02-10T11:37:56;40.08;;;20.08;;
63599;SDS011;49747;51.334;6.830;2023-02-10T11:40:50;42.97;;;19.65;;
63599;SDS011;49747;51.334;6.830;2023-02-10T11:43:17;44.75;;;19.42;;
63599;SDS011;49747;51.334;6.830;2023-02-10T11:45:52;38.45;;;19.20;;
63599;SDS011;49747;51.334;6.830;2023-02-10T11:48:24;43.00;;;20.30;;
63599;SDS011;49747;51.334;6.830;2023-02-10T11:53:35;37.92;;;16.55;;
63599;SDS011;49747;51.334;6.830;2023-02-10T11:56:20;40.08;;;17.70;;
63599;SDS011;49747;51.334;6.830;2023-02-10T12:02:17;37.75;;;17.00;;
63599;SDS011;49747;51.334;6.830;2023-02-10T12:05:16;38.15;;;17.70;;
63599;SDS011;49747;51.334;6.830;2023-02-10T12:10:44;39.13;;;17.85;;
63599;SDS011;49747;51.334;6.830;2023-02-10T12:16:34;40.65;;;16.77;;
63599;SDS011;49747;51.334;6.830;2023-02-10T12:19:12;35.78;;;16.20;;
63599;SDS011;49747;51.334;6.830;2023-02-10T12:21:55;36.05;;;16.00;;
63599;SDS011;49747;51.334;6.830;2023-02-10T12:25:09;32.65;;;14.20;;
63599;SDS011;49747;51.334;6.830;2023-02-10T12:30:22;33.65;;;14.10;;
63599;SDS011;49747;51.334;6.830;2023-02-10T12:33:00;28.40;;;12.70;;
63599;SDS011;49747;51.334;6.830;2023-02-10T12:35:56;29.67;;;13.65;;
63599;SDS011;49747;51.334;6.830;2023-02-10T12:41:02;26.15;;;11.77;;
63599;SDS011;49747;51.334;6.830;2023-02-10T12:49:38;24.17;;;11.40;;
63599;SDS011;49747;51.334;6.830;2023-02-10T12:52:18;24.17;;;11.77;;
63599;SDS011;49747;51.334;6.830;2023-02-10T12:54:52;28.73;;;12.65;;
63599;SDS011;49747;51.334;6.830;2023-02-10T12:57:25;26.80;;;12.88;;
63599;SDS011;49747;51.334;6.830;2023-02-10T12:59:58;28.42;;;12.43;;
63599;SDS011;49747;51.334;6.830;2023-02-10T13:02:50;28.33;;;13.02;;
63599;SDS011;49747;51.334;6.830;2023-02-10T13:08:27;32.33;;;13.88;;
63599;SDS011;49747;51.334;6.830;2023-02-10T13:10:59;34.03;;;15.27;;
63599;SDS011;49747;51.334;6.830;2023-02-10T13:13:35;30.02;;;14.20;;
63599;SDS011;49747;51.334;6.830;2023-02-10T13:16:10;30.58;;;15.00;;
63599;SDS011;49747;51.334;6.830;2023-02-10T13:18:53;34.97;;;15.05;;
63599;SDS011;49747;51.334;6.830;2023-02-10T13:21:29;35.75;;;16.08;;
63599;SDS011;49747;51.334;6.830;2023-02-10T13:26:52;33.60;;;16.02;;
63599;SDS011;49747;51.334;6.830;2023-02-10T13:32:37;37.90;;;16.63;;
63599;SDS011;49747;51.334;6.830;2023-02-10T13:35:19;39.33;;;18.38;;
63599;SDS011;49747;51.334;6.830;2023-02-10T13:37:50;31.45;;;16.50;;
63599;SDS011;49747;51.334;6.830;2023-02-10T13:40:24;32.80;;;16.45;;
63599;SDS011;49747;51.334;6.830;2023-02-10T13:42:58;34.28;;;17.08;;
63599;SDS011;49747;51.334;6.830;2023-02-10T13:45:28;30.27;;;15.25;;
63599;SDS011;49747;51.334;6.830;2023-02-10T13:48:00;34.20;;;16.67;;
63599;SDS011;49747;51.334;6.830;2023-02-10T13:50:37;38.78;;;16.55;;
63599;SDS011;49747;51.334;6.830;2023-02-10T14:06:47;33.50;;;17.95;;
63599;SDS011;49747;51.334;6.830;2023-02-10T14:11:48;32.42;;;16.10;;
63599;SDS011;49747;51.334;6.830;2023-02-10T14:16:51;32.47;;;16.17;;
63599;SDS011;49747;51.334;6.830;2023-02-10T14:19:31;29.33;;;14.82;;
63599;SDS011;49747;51.334;6.830;2023-02-10T14:22:03;31.17;;;17.02;;
63599;SDS011;49747;51.334;6.830;2023-02-10T14:24:33;32.53;;;16.95;;
63599;SDS011;49747;51.334;6.830;2023-02-10T14:27:17;37.63;;;15.15;;
63599;SDS011;49747;51.334;6.830;2023-02-10T14:29:47;29.45;;;16.05;;
63599;SDS011;49747;51.334;6.830;2023-02-10T14:32:22;27.10;;;13.77;;
63599;SDS011;49747;51.334;6.830;2023-02-10T14:34:59;29.35;;;15.23;;
63599;SDS011;49747;51.334;6.830;2023-02-10T14:37:32;29.73;;;14.95;;
63599;SDS011;49747;51.334;6.830;2023-02-10T14:39:59;29.15;;;14.25;;
63599;SDS011;49747;51.334;6.830;2023-02-10T14:42:28;29.50;;;14.00;;
63599;SDS011;49747;51.334;6.830;2023-02-10T14:44:58;34.00;;;15.32;;
63599;SDS011;49747;51.334;6.830;2023-02-10T14:47:33;25.05;;;15.60;;
63599;SDS011;49747;51.334;6.830;2023-02-10T14:50:03;25.90;;;13.30;;
63599;SDS011;49747;51.334;6.830;2023-02-10T14:52:34;26.23;;;13.50;;
63599;SDS011;49747;51.334;6.830;2023-02-10T14:58:03;23.73;;;12.95;;
63599;SDS011;49747;51.334;6.830;2023-02-10T15:00:32;26.05;;;13.10;;
63599;SDS011;49747;51.334;6.830;2023-02-10T15:03:02;24.95;;;13.05;;
63599;SDS011;49747;51.334;6.830;2023-02-10T15:05:44;22.50;;;12.80;;
63599;SDS011;49747;51.334;6.830;2023-02-10T15:08:31;22.73;;;12.65;;
63599;SDS011;49747;51.334;6.830;2023-02-10T15:11:01;24.52;;;13.55;;
63599;SDS011;49747;51.334;6.830;2023-02-10T15:13:32;23.33;;;14.00;;
63599;SDS011;49747;51.334;6.830;2023-02-10T15:16:04;26.00;;;13.48;;
63599;SDS011;49747;51.334;6.830;2023-02-10T15:18:34;30.63;;;14.13;;
63599;SDS011;49747;51.334;6.830;2023-02-10T15:21:06;26.52;;;13.50;;
63599;SDS011;49747;51.334;6.830;2023-02-10T15:23:51;23.13;;;13.18;;
63599;SDS011;49747;51.334;6.830;2023-02-10T15:26:19;24.98;;;14.13;;
63599;SDS011;49747;51.334;6.830;2023-02-10T15:28:56;22.40;;;13.75;;
63599;SDS011;49747;51.334;6.830;2023-02-10T15:31:28;22.90;;;12.45;;
63599;SDS011;49747;51.334;6.830;2023-02-10T15:33:56;24.73;;;13.23;;
63599;SDS011;49747;51.334;6.830;2023-02-10T15:43:54;24.85;;;13.55;;
63599;SDS011;49747;51.334;6.830;2023-02-10T15:46:24;23.73;;;13.68;;
63599;SDS011;49747;51.334;6.830;2023-02-10T15:48:52;23.38;;;13.65;;
63599;SDS011;49747;51.334;6.830;2023-02-10T15:51:23;20.48;;;13.43;;
63599;SDS011;49747;51.334;6.830;2023-02-10T15:53:54;25.33;;;13.60;;
63599;SDS011;49747;51.334;6.830;2023-02-10T15:56:22;26.60;;;13.68;;
63599;SDS011;49747;51.334;6.830;2023-02-10T15:58:50;26.83;;;13.90;;
63599;SDS011;49747;51.334;6.830;2023-02-10T16:01:18;24.00;;;13.40;;
63599;SDS011;49747;51.334;6.830;2023-02-10T16:03:45;24.48;;;12.95;;
63599;SDS011;49747;51.334;6.830;2023-02-10T16:06:15;21.85;;;12.13;;
63599;SDS011;49747;51.334;6.830;2023-02-10T16:08:42;19.08;;;10.85;;
63599;SDS011;49747;51.334;6.830;2023-02-10T16:11:10;20.98;;;10.73;;
63599;SDS011;49747;51.334;6.830;2023-02-10T16:13:38;17.30;;;11.48;;
63599;SDS011;49747;51.334;6.830;2023-02-10T16:16:05;19.52;;;11.65;;
63599;SDS011;49747;51.334;6.830;2023-02-10T16:18:42;19.95;;;10.07;;
63599;SDS011;49747;51.334;6.830;2023-02-10T16:21:10;21.40;;;11.23;;
63599;SDS011;49747;51.334;6.830;2023-02-10T16:23:40;22.05;;;10.18;;
63599;SDS011;49747;51.334;6.830;2023-02-10T16:26:08;21.65;;;10.80;;
63599;SDS011;49747;51.334;6.830;2023-02-10T16:28:44;16.50;;;10.13;;
63599;SDS011;49747;51.334;6.830;2023-02-10T16:31:10;18.67;;;10.23;;
63599;SDS011;49747;51.334;6.830;2023-02-10T16:33:37;17.05;;;9.77;;
63599;SDS011;49747;51.334;6.830;2023-02-10T16:36:04;15.98;;;9.88;;
63599;SDS011;49747;51.334;6.830;2023-02-10T16:38:31;16.08;;;8.93;;
63599;SDS011;49747;51.334;6.830;2023-02-10T16:41:00;19.45;;;9.88;;
63599;SDS011;49747;51.334;6.830;2023-02-10T16:43:26;17.33;;;10.02;;
63599;SDS011;49747;51.334;6.830;2023-02-10T16:45:53;19.45;;;10.57;;